Time;durP1;ratioP1;P1;durP2;ratioP2;P2;SDS_P1;SDS_P2;PMS_P1;PMS_P2;Temp;Humidity;BMP_temperature;BMP_pressure;BME280_temperature;BME280_humidity;BME280_pressure;Samples;Min_cycle;Max_cycle;Signal;HPM_P1;HPM_P2
2022/05/15 00:00:45;;;;;;;21.55;9.07;;;;;;;16.30;54.34;101894.13;5061362;28;20400;-66
2022/05/15 00:03:18;;;;;;;25.75;9.25;;;;;;;16.45;53.97;101898.41;5073043;28;20044;-66
2022/05/15 00:05:52;;;;;;;22.50;8.60;;;;;;;16.24;54.52;101895.41;5071244;28;20097;-66
2022/05/15 00:08:18;;;;;;;23.95;9.52;;;;;;;16.39;53.98;101900.69;5073312;28;20052;-66
2022/05/15 00:10:44;;;;;;;26.10;9.32;;;;;;;16.11;54.87;101898.09;5073072;28;20487;-66
2022/05/15 00:13:09;;;;;;;23.08;8.43;;;;;;;16.30;54.28;101899.50;5054565;28;20086;-67
2022/05/15 00:15:36;;;;;;;22.83;8.55;;;;;;;16.30;54.42;101900.34;5072851;28;20036;-66
2022/05/15 00:18:03;;;;;;;26.92;8.95;;;;;;;16.16;54.83;101897.78;5072662;28;20070;-66
2022/05/15 00:20:31;;;;;;;26.05;9.00;;;;;;;16.15;54.56;101892.50;5071182;28;20024;-66
2022/05/15 00:22:58;;;;;;;21.52;8.65;;;;;;;15.96;55.05;101883.06;5078171;28;20033;-66
2022/05/15 00:25:23;;;;;;;22.50;8.50;;;;;;;16.07;54.77;101888.53;5072785;28;20033;-66
2022/05/15 00:27:49;;;;;;;27.35;9.25;;;;;;;16.01;54.94;101883.59;5054883;28;20037;-66
2022/05/15 00:30:16;;;;;;;25.58;9.30;;;;;;;16.03;55.00;101889.72;5071394;28;20036;-66
2022/05/15 00:32:42;;;;;;;27.88;8.80;;;;;;;15.95;54.91;101875.13;5072465;28;20028;-66
2022/05/15 00:35:11;;;;;;;26.45;8.90;;;;;;;15.83;55.75;101884.88;5069873;28;20502;-66
2022/05/15 00:37:37;;;;;;;24.40;8.43;;;;;;;15.82;55.56;101880.47;5071388;28;20386;-66
2022/05/15 00:40:04;;;;;;;24.65;9.15;;;;;;;15.87;55.33;101879.19;5072016;28;20282;-66
2022/05/15 00:42:30;;;;;;;23.20;9.07;;;;;;;15.84;55.24;101884.75;5072268;28;20016;-66
2022/05/15 00:44:56;;;;;;;23.92;9.55;;;;;;;15.81;55.29;101879.59;5072709;28;20044;-66
2022/05/15 00:47:21;;;;;;;27.42;8.55;;;;;;;15.83;55.13;101884.88;5054595;28;20028;-66
2022/05/15 00:49:48;;;;;;;22.17;8.52;;;;;;;15.74;55.39;101885.50;5071030;28;20415;-66
2022/05/15 00:52:19;;;;;;;25.92;8.32;;;;;;;15.63;55.48;101876.31;5072119;28;20032;-66
2022/05/15 00:54:53;;;;;;;26.88;8.82;;;;;;;15.70;55.51;101879.47;5078789;28;20040;-66
2022/05/15 00:57:23;;;;;;;29.13;9.23;;;;;;;15.74;55.23;101872.97;5081101;28;20089;-66
2022/05/15 00:59:51;;;;;;;24.52;9.32;;;;;;;15.83;54.85;101866.94;5071983;28;20052;-66
2022/05/15 01:02:17;;;;;;;27.52;8.90;;;;;;;15.59;55.40;101874.81;5071468;28;20028;-66
2022/05/15 01:04:47;;;;;;;29.73;8.77;;;;;;;15.55;55.75;101873.28;5070331;28;20082;-66
2022/05/15 01:07:12;;;;;;;;;;;;;;;15.85;54.23;101877.56;5071510;28;20033;-66
2022/05/15 01:09:38;;;;;;;26.45;9.88;;;;;;;15.60;55.26;101881.91;5072392;28;19916;-66
2022/05/15 01:12:04;;;;;;;22.63;8.73;;;;;;;15.50;55.51;101879.94;5070893;28;20040;-66
2022/05/15 01:14:32;;;;;;;23.98;8.70;;;;;;;15.43;56.11;101877.66;5070851;28;20086;-66
2022/05/15 01:16:57;;;;;;;24.33;8.20;;;;;;;15.37;56.05;101880.75;5070667;28;20492;-67
2022/05/15 01:19:34;;;;;;;23.92;8.57;;;;;;;15.49;55.54;101880.91;5072891;28;20026;-66
2022/05/15 01:22:04;;;;;;;22.10;7.93;;;;;;;15.45;55.85;101886.47;5072271;28;20133;-66
2022/05/15 01:24:30;;;;;;;27.42;8.93;;;;;;;15.42;55.81;101884.00;5072132;28;20553;-66
2022/05/15 01:27:00;;;;;;;21.70;8.02;;;;;;;15.32;56.23;101890.06;5071829;28;20064;-66
2022/05/15 01:29:32;;;;;;;20.67;8.60;;;;;;;15.27;56.12;101884.16;5070487;28;20017;-66
2022/05/15 01:31:59;;;;;;;24.92;8.25;;;;;;;15.31;56.08;101886.53;5070953;28;20155;-66
2022/05/15 01:34:25;;;;;;;22.55;7.95;;;;;;;15.19;56.47;101882.00;5089601;28;20111;-66
2022/05/15 01:36:52;;;;;;;27.90;8.52;;;;;;;15.28;56.01;101886.72;5071701;28;20028;-66
2022/05/15 01:39:18;;;;;;;27.58;8.43;;;;;;;15.12;56.24;101873.50;5071683;28;20103;-66
2022/05/15 01:41:44;;;;;;;23.67;8.73;;;;;;;15.14;56.52;101878.75;5070831;28;20028;-66
2022/05/15 01:44:11;;;;;;;22.98;8.38;;;;;;;15.11;56.75;101881.63;5069774;28;20082;-66
2022/05/15 01:46:38;;;;;;;25.35;8.52;;;;;;;15.05;56.80;101874.84;5070430;28;20044;-66
2022/05/15 01:49:06;;;;;;;25.13;8.60;;;;;;;15.03;56.91;101879.47;5071060;28;20448;-66
2022/05/15 01:51:38;;;;;;;24.88;8.93;;;;;;;15.04;56.99;101881.16;5070476;28;20078;-66
2022/05/15 01:54:06;;;;;;;25.42;8.35;;;;;;;14.89;57.28;101877.66;5071778;28;20039;-66
2022/05/15 01:56:32;;;;;;;21.63;8.68;;;;;;;14.88;57.13;101873.28;5070668;28;20028;-66
2022/05/15 01:58:58;;;;;;;24.73;8.43;;;;;;;14.84;57.37;101873.56;5070211;28;20472;-66
2022/05/15 02:01:25;;;;;;;24.50;7.78;;;;;;;14.82;57.62;101872.81;5071139;28;20094;-66
2022/05/15 02:03:52;;;;;;;25.15;8.63;;;;;;;14.91;57.45;101874.88;5071057;28;20060;-66
2022/05/15 02:06:18;;;;;;;29.27;8.85;;;;;;;14.81;57.73;101873.78;5070786;28;20024;-66
2022/05/15 02:08:43;;;;;;;24.27;8.18;;;;;;;14.69;57.89;101875.41;5052204;28;20098;-66
2022/05/15 02:11:09;;;;;;;26.08;9.13;;;;;;;14.74;57.82;101865.28;5068959;28;20061;-66
2022/05/15 02:13:35;;;;;;;25.30;8.80;;;;;;;14.80;57.90;101864.03;5069796;28;20052;-66
2022/05/15 02:16:02;;;;;;;28.17;9.20;;;;;;;14.83;57.64;101864.69;5070434;28;20032;-66
2022/05/15 02:18:30;;;;;;;28.25;8.60;;;;;;;14.62;58.05;101852.66;5070787;28;20499;-66
2022/05/15 02:20:58;;;;;;;24.35;8.73;;;;;;;14.61;58.20;101856.28;5070211;28;20032;-66
2022/05/15 02:23:26;;;;;;;24.20;8.55;;;;;;;14.58;58.31;101857.34;5068761;28;20491;-66
2022/05/15 02:25:53;;;;;;;18.17;7.68;;;;;;;14.59;58.20;101860.88;5066280;28;20119;-66
2022/05/15 02:28:19;;;;;;;29.95;9.10;;;;;;;14.36;59.08;101865.00;5070808;28;20020;-66
2022/05/15 02:30:48;;;;;;;30.17;9.15;;;;;;;14.41;58.80;101863.75;5070665;28;20043;-66
2022/05/15 02:33:13;;;;;;;24.48;8.25;;;;;;;14.44;58.97;101865.34;5070507;28;20021;-66
2022/05/15 02:35:39;;;;;;;27.95;9.13;;;;;;;14.39;59.15;101856.78;5051968;28;20038;-66
2022/05/15 02:38:05;;;;;;;21.70;8.70;;;;;;;14.30;59.50;101863.56;5070322;28;20081;-66
2022/05/15 02:40:31;;;;;;;25.27;8.50;;;;;;;14.35;59.31;101857.91;5069317;28;20067;-66
2022/05/15 02:42:59;;;;;;;23.98;8.77;;;;;;;14.32;59.41;101854.50;5070418;28;20020;-66
2022/05/15 02:45:27;;;;;;;24.98;9.05;;;;;;;14.15;59.92;101854.69;5052046;28;20119;-66
2022/05/15 02:47:53;;;;;;;25.92;9.10;;;;;;;14.15;59.96;101854.69;5070610;28;20029;-66
2022/05/15 02:53:05;;;;;;;28.13;9.00;;;;;;;14.20;59.84;101854.38;5068765;28;20392;-66
2022/05/15 02:55:31;;;;;;;28.83;8.85;;;;;;;14.17;59.80;101849.22;5069516;28;20035;-66
2022/05/15 02:57:57;;;;;;;24.67;8.70;;;;;;;14.04;60.05;101849.13;5070887;28;20029;-66
2022/05/15 03:00:25;;;;;;;26.25;8.25;;;;;;;14.07;60.06;101854.28;5069100;28;20127;-66
2022/05/15 03:02:51;;;;;;;27.63;9.77;;;;;;;13.93;60.62;101843.56;5068436;28;20035;-66
2022/05/15 03:05:20;;;;;;;23.33;8.57;;;;;;;13.98;60.63;101838.81;5069431;28;20537;-66
2022/05/15 03:07:47;;;;;;;22.27;8.93;;;;;;;13.98;60.67;101842.34;5070091;28;20024;-66
2022/05/15 03:10:15;;;;;;;26.02;9.85;;;;;;;13.85;60.91;101844.03;5069845;28;20389;-66
2022/05/15 03:12:41;;;;;;;27.73;8.50;;;;;;;13.85;61.06;101836.88;5076706;28;20482;-66
2022/05/15 03:15:08;;;;;;;21.63;8.23;;;;;;;13.74;60.94;101830.47;5069329;28;20027;-66
2022/05/15 03:17:35;;;;;;;28.00;8.95;;;;;;;13.73;61.11;101844.78;5068739;28;20020;-66
2022/05/15 03:20:03;;;;;;;24.85;8.90;;;;;;;13.93;60.72;101839.06;5069118;28;20016;-66
2022/05/15 03:22:29;;;;;;;27.17;9.07;;;;;;;13.97;60.18;101832.59;5070043;28;20086;-66
2022/05/15 03:24:56;;;;;;;26.00;9.27;;;;;;;13.88;60.62;101846.50;5069043;28;20051;-66
2022/05/15 03:27:22;;;;;;;29.25;8.95;;;;;;;13.80;60.74;101833.63;5068922;28;20029;-66
2022/05/15 03:29:49;;;;;;;30.50;9.60;;;;;;;13.78;60.74;101829.31;5069734;28;20124;-66
2022/05/15 03:32:15;;;;;;;24.88;8.77;;;;;;;13.57;61.62;101840.34;5068616;28;20566;-66
2022/05/15 03:34:40;;;;;;;24.90;8.93;;;;;;;13.68;61.46;101838.84;5067954;28;20119;-66
2022/05/15 03:37:06;;;;;;;20.63;9.02;;;;;;;13.61;61.67;101833.88;5070634;28;20476;-66
2022/05/15 03:39:31;;;;;;;26.85;9.32;;;;;;;13.55;61.93;101836.91;5051436;28;20029;-66
2022/05/15 03:41:57;;;;;;;22.85;9.63;;;;;;;13.58;62.00;101835.88;5067307;28;20062;-66
2022/05/15 03:44:23;;;;;;;24.73;9.25;;;;;;;13.58;61.88;101835.88;5052176;28;20119;-66
2022/05/15 03:46:48;;;;;;;22.88;8.57;;;;;;;13.59;61.70;101835.78;5070382;28;20029;-66
2022/05/15 03:49:14;;;;;;;25.70;8.75;;;;;;;13.44;61.89;101814.44;5068984;28;20051;-66
2022/05/15 03:51:41;;;;;;;26.02;9.30;;;;;;;13.48;62.22;101826.69;5070014;28;20128;-66
2022/05/15 03:54:08;;;;;;;30.15;8.98;;;;;;;13.56;61.88;101837.75;5068648;28;20055;-66
2022/05/15 03:56:54;;;;;;;22.60;8.32;;;;;;;13.55;61.89;101834.22;5068980;28;20396;-66
2022/05/15 03:59:46;;;;;;;25.63;8.50;;;;;;;13.62;61.10;101822.22;5069281;28;20375;-67
2022/05/15 04:02:12;;;;;;;23.42;8.68;;;;;;;13.50;61.91;101835.47;5068328;28;20071;-67
2022/05/15 04:04:38;;;;;;;21.17;8.52;;;;;;;13.54;62.05;101826.31;5050035;28;20067;-67
2022/05/15 04:07:04;;;;;;;31.40;9.60;;;;;;;13.47;62.18;101832.97;5068828;28;20042;-67
2022/05/15 04:09:32;;;;;;;32.28;9.35;;;;;;;13.46;62.36;101839.28;5067085;28;20761;-67
2022/05/15 04:11:58;;;;;;;27.40;9.38;;;;;;;13.48;62.33;101834.72;5072767;28;20387;-67
2022/05/15 04:14:24;;;;;;;26.38;9.05;;;;;;;13.51;62.19;101847.88;5070780;28;20115;-67
2022/05/15 04:16:49;;;;;;;31.40;9.20;;;;;;;13.56;62.13;101845.78;5072334;28;20480;-67
2022/05/15 04:19:15;;;;;;;25.60;9.15;;;;;;;13.38;62.56;101853.97;5054218;28;20021;-67
2022/05/15 04:21:44;;;;;;;28.55;8.45;;;;;;;13.37;62.30;101846.03;5070717;28;20041;-67
2022/05/15 04:24:12;;;;;;;28.75;9.35;;;;;;;13.46;62.33;101852.63;5071915;28;20517;-67
2022/05/15 04:26:40;;;;;;;26.20;9.73;;;;;;;13.35;63.12;101842.56;5072814;28;20028;-67
2022/05/15 04:29:06;;;;;;;29.30;9.10;;;;;;;13.52;62.67;101841.56;5071827;28;20036;-67
2022/05/15 04:31:33;;;;;;;25.92;9.48;;;;;;;13.51;62.48;101832.72;5072901;28;20074;-66
2022/05/15 04:34:00;;;;;;;25.60;8.63;;;;;;;13.57;62.28;101837.69;5072615;28;20117;-67
2022/05/15 04:36:26;;;;;;;31.08;9.35;;;;;;;13.60;62.47;101837.50;5071560;28;20480;-67
2022/05/15 04:38:51;;;;;;;27.55;10.10;;;;;;;13.38;62.96;101829.91;5072219;28;20075;-69
2022/05/15 04:41:17;;;;;;;23.73;9.07;;;;;;;13.51;63.03;101832.72;5070489;28;20108;-67
2022/05/15 04:43:42;;;;;;;26.35;8.95;;;;;;;13.48;63.07;101840.91;5036981;28;20480;-67
2022/05/15 04:46:09;;;;;;;25.70;9.48;;;;;;;13.56;63.07;101840.44;5070754;28;20024;-67
2022/05/15 04:48:35;;;;;;;34.30;10.23;;;;;;;13.45;63.13;101822.38;5073339;28;20028;-67
2022/05/15 04:51:02;;;;;;;32.08;10.20;;;;;;;13.55;63.37;101836.91;5072167;28;20029;-67
2022/05/15 04:53:28;;;;;;;21.63;10.00;;;;;;;13.63;62.87;101833.78;5072390;28;20031;-67
2022/05/15 04:55:54;;;;;;;27.58;10.23;;;;;;;13.75;62.67;101835.72;5071024;28;20040;-67
2022/05/15 04:58:20;;;;;;;28.60;11.52;;;;;;;13.86;62.28;101835.06;5071946;28;20372;-67
2022/05/15 05:00:45;;;;;;;31.58;11.63;;;;;;;13.94;62.23;101839.94;5070628;28;20037;-67
2022/05/15 05:03:11;;;;;;;26.02;10.85;;;;;;;14.04;61.85;101833.06;5072524;28;20044;-67
2022/05/15 05:05:36;;;;;;;37.75;10.98;;;;;;;14.11;61.68;101834.41;5072163;28;20025;-67
2022/05/15 05:08:02;;;;;;;27.80;9.68;;;;;;;14.14;61.86;101830.69;5085639;28;20120;-67
2022/05/15 05:10:28;;;;;;;27.73;10.68;;;;;;;14.23;61.73;101849.69;5086464;28;20116;-67
2022/05/15 05:12:53;;;;;;;28.40;10.23;;;;;;;14.27;61.61;101840.53;5077321;28;20406;-67
2022/05/15 05:15:21;;;;;;;23.15;9.32;;;;;;;14.24;62.05;101851.44;5071785;28;20094;-67
2022/05/15 05:17:47;;;;;;;29.52;9.77;;;;;;;14.45;61.60;101854.56;5069917;28;20039;-67
2022/05/15 05:20:14;;;;;;;26.55;9.57;;;;;;;14.38;61.65;101850.53;5072642;28;20055;-67
2022/05/15 05:22:40;;;;;;;22.80;9.75;;;;;;;14.41;61.62;101836.09;5070570;28;20483;-67
2022/05/15 05:25:10;;;;;;;27.35;10.68;;;;;;;14.41;62.60;101858.41;5071645;28;20118;-67
2022/05/15 05:27:38;;;;;;;24.50;9.48;;;;;;;14.57;61.71;101847.59;5071900;28;20376;-67
2022/05/15 05:30:06;;;;;;;27.00;9.95;;;;;;;14.62;61.58;101839.25;5069123;28;20028;-67
2022/05/15 05:32:32;;;;;;;21.55;9.40;;;;;;;14.69;61.48;101841.47;5072074;28;20099;-67
2022/05/15 05:35:00;;;;;;;24.58;9.32;;;;;;;14.75;60.92;101842.88;5069366;28;20403;-67
2022/05/15 05:37:26;;;;;;;23.08;9.20;;;;;;;14.86;60.84;101837.69;5071447;28;20032;-67
2022/05/15 05:39:51;;;;;;;26.83;9.85;;;;;;;14.91;60.21;101848.09;5077222;28;20024;-67
2022/05/15 05:42:20;;;;;;;22.35;9.32;;;;;;;14.88;59.92;101841.16;5092145;28;20030;-67
2022/05/15 05:44:45;;;;;;;25.45;9.82;;;;;;;14.93;60.14;101836.31;5073004;28;20467;-67
2022/05/15 05:47:12;;;;;;;27.33;10.23;;;;;;;15.08;60.45;101847.84;5053964;28;20071;-67
2022/05/15 05:49:38;;;;;;;22.77;9.57;;;;;;;15.19;60.06;101852.50;5069783;28;20029;-67
2022/05/15 05:52:04;;;;;;;24.27;10.10;;;;;;;15.28;59.55;101851.88;5071539;28;20055;-67
2022/05/15 05:54:31;;;;;;;29.80;10.15;;;;;;;15.35;59.54;101855.00;5053860;28;20094;-67
2022/05/15 05:56:58;;;;;;;22.55;9.55;;;;;;;15.45;59.20;101853.44;5071971;28;20028;-67
2022/05/15 05:59:24;;;;;;;22.30;9.32;;;;;;;15.52;59.51;101851.19;5070442;28;20407;-67
2022/05/15 06:01:49;;;;;;;28.13;10.10;;;;;;;15.61;58.69;101850.56;5070639;28;20024;-67
2022/05/15 06:06:59;;;;;;;25.42;10.63;;;;;;;15.78;57.92;101852.13;5071053;28;20549;-67
2022/05/15 06:09:24;;;;;;;24.13;10.40;;;;;;;15.89;57.77;101844.22;5071261;28;20119;-67
2022/05/15 06:11:50;;;;;;;36.00;10.52;;;;;;;15.93;57.45;101847.53;5074245;28;20103;-67
2022/05/15 06:14:15;;;;;;;25.17;11.25;;;;;;;16.04;57.87;101848.50;5052515;28;20075;-67
2022/05/15 06:16:41;;;;;;;29.10;10.07;;;;;;;16.09;57.36;101846.34;5057483;28;20044;-67
2022/05/15 06:19:08;;;;;;;25.08;10.07;;;;;;;16.27;57.67;101840.66;5076668;28;20036;-67
2022/05/15 06:21:36;;;;;;;28.85;10.93;;;;;;;16.37;56.95;101847.06;5089932;28;20495;-67
2022/05/15 06:24:02;;;;;;;29.40;10.55;;;;;;;16.52;56.35;101842.44;5091078;28;20097;-67
2022/05/15 06:26:27;;;;;;;23.30;11.02;;;;;;;16.62;56.59;101837.22;5058825;28;20036;-67
2022/05/15 06:28:53;;;;;;;30.13;10.50;;;;;;;16.66;56.19;101841.44;5068992;28;20356;-67
2022/05/15 06:31:19;;;;;;;23.88;9.50;;;;;;;16.72;56.10;101847.22;5069332;28;20477;-67
2022/05/15 06:33:44;;;;;;;22.50;10.18;;;;;;;16.75;55.91;101841.59;5068879;28;20098;-67
2022/05/15 06:36:12;;;;;;;26.00;10.70;;;;;;;16.76;55.92;101837.97;5069277;28;20037;-67
2022/05/15 06:38:40;;;;;;;26.48;10.27;;;;;;;16.83;56.19;101841.09;5069262;28;20036;-67
2022/05/15 06:41:07;;;;;;;24.33;11.25;;;;;;;16.92;56.37;101840.41;5068382;28;20024;-67
2022/05/15 06:43:33;;;;;;;20.83;10.57;;;;;;;17.05;55.68;101839.50;5070986;28;20020;-67
2022/05/15 06:45:59;;;;;;;24.77;11.20;;;;;;;17.08;55.74;101833.88;5069963;28;20123;-66
2022/05/15 06:48:24;;;;;;;22.60;10.93;;;;;;;17.18;55.67;101845.69;5069043;28;20016;-67
2022/05/15 06:50:50;;;;;;;32.38;11.32;;;;;;;17.24;55.30;101839.84;5053641;28;20095;-66
2022/05/15 06:53:16;;;;;;;25.95;10.07;;;;;;;17.40;55.54;101842.22;5086434;28;20091;-67
2022/05/15 06:58:26;;;;;;;23.38;10.50;;;;;;;17.56;55.22;101837.38;5069730;28;20043;-67
2022/05/15 07:00:52;;;;;;;23.00;10.35;;;;;;;17.62;54.52;101836.06;5071999;28;20024;-67
2022/05/15 07:03:18;;;;;;;19.27;9.23;;;;;;;17.69;54.09;101831.91;5070210;28;20098;-67
2022/05/15 07:05:46;;;;;;;22.63;10.65;;;;;;;17.77;54.08;101834.03;5068956;28;20040;-67
2022/05/15 07:08:11;;;;;;;21.55;10.30;;;;;;;17.83;54.04;101847.88;5070536;28;20082;-67
2022/05/15 07:10:39;;;;;;;20.58;10.05;;;;;;;17.88;54.10;101844.81;5036206;28;20032;-67
2022/05/15 07:13:06;;;;;;;17.88;9.80;;;;;;;17.92;53.80;101851.69;5070192;28;20045;-67
2022/05/15 07:15:31;;;;;;;24.90;10.38;;;;;;;17.91;53.83;101852.66;5070606;28;20111;-67
2022/05/15 07:17:57;;;;;;;20.20;10.48;;;;;;;17.98;53.26;101855.75;5052778;28;20127;-67
2022/05/15 07:20:23;;;;;;;21.25;9.98;;;;;;;18.23;53.60;101849.25;5050969;28;20025;-66
2022/05/15 07:22:48;;;;;;;22.50;10.13;;;;;;;18.33;52.58;101852.94;5068737;28;20466;-67
2022/05/15 07:25:15;;;;;;;20.83;9.95;;;;;;;18.64;52.06;101855.84;5067424;28;20024;-67
2022/05/15 07:27:40;;;;;;;21.23;9.48;;;;;;;18.84;51.29;101849.72;5067909;28;20029;-67
2022/05/15 07:30:06;;;;;;;20.15;9.48;;;;;;;19.02;51.18;101850.91;5067769;28;20086;-66
2022/05/15 07:32:32;;;;;;;20.83;9.50;;;;;;;19.15;50.80;101850.75;5069184;28;20472;-67
2022/05/15 07:34:58;;;;;;;18.98;9.30;;;;;;;19.42;50.58;101849.41;5068250;28;20032;-66
2022/05/15 07:37:26;;;;;;;22.70;10.32;;;;;;;19.56;50.06;101845.53;5064623;28;20115;-67
2022/05/15 07:39:51;;;;;;;19.13;9.43;;;;;;;19.63;48.58;101852.97;5067152;28;20032;-66
2022/05/15 07:42:17;;;;;;;17.35;9.95;;;;;;;19.74;48.50;101846.72;5072031;28;20029;-66
2022/05/15 07:44:43;;;;;;;18.60;9.52;;;;;;;19.78;47.49;101850.84;5072313;28;20033;-67
2022/05/15 07:47:08;;;;;;;26.13;9.55;;;;;;;19.76;47.58;101823.09;5072780;28;20115;-67
2022/05/15 07:49:35;;;;;;;26.00;10.13;;;;;;;19.99;48.08;101845.41;5055780;28;20041;-66
2022/05/15 07:52:00;;;;;;;18.58;9.15;;;;;;;20.11;46.88;101848.91;5074046;28;20028;-66
2022/05/15 07:54:26;;;;;;;20.38;9.15;;;;;;;20.19;47.66;101844.53;5072308;28;20060;-66
2022/05/15 07:56:52;;;;;;;17.20;8.40;;;;;;;20.35;47.12;101841.34;5074116;28;20032;-66
2022/05/15 07:59:17;;;;;;;18.05;9.27;;;;;;;20.59;46.51;101842.88;5072333;28;20025;-66
2022/05/15 08:01:43;;;;;;;19.92;8.82;;;;;;;20.63;45.97;101844.31;5055867;28;20032;-66
2022/05/15 08:04:10;;;;;;;21.88;9.45;;;;;;;20.75;45.87;101848.59;5072428;28;20039;-65
2022/05/15 08:09:20;;;;;;;19.08;9.20;;;;;;;20.95;44.79;101843.25;5070161;28;20422;-67
2022/05/15 08:11:48;;;;;;;23.98;9.68;;;;;;;21.09;44.89;101838.28;5066920;28;20519;-69
2022/05/15 08:14:14;;;;;;;20.33;8.73;;;;;;;21.28;44.68;101836.56;5062020;28;20057;-69
2022/05/15 08:16:39;;;;;;;21.98;8.43;;;;;;;21.40;44.69;101832.75;5069696;28;20190;-65
2022/05/15 08:24:36;;;;;;;19.15;8.38;;;;;;;21.64;43.82;101807.06;5072808;28;20071;-67
2022/05/15 08:27:04;;;;;;;15.82;8.07;;;;;;;21.71;43.74;101809.06;5073171;28;20098;-66
2022/05/15 08:29:30;;;;;;;19.95;8.48;;;;;;;21.81;43.18;101808.19;5071057;28;20028;-71
2022/05/15 08:31:55;;;;;;;22.02;9.30;;;;;;;21.87;44.38;101808.44;5072446;28;20032;-65
2022/05/15 08:34:21;;;;;;;21.38;8.70;;;;;;;21.97;41.88;101808.41;5071972;28;20021;-65
2022/05/15 08:36:47;;;;;;;17.48;7.93;;;;;;;22.10;41.76;101808.09;5071825;28;20120;-65
2022/05/15 08:39:14;;;;;;;22.30;8.77;;;;;;;22.10;41.97;101787.25;5054940;28;20495;-66
2022/05/15 08:42:01;;;;;;;18.60;8.52;;;;;;;22.12;41.35;101787.09;5073187;28;20029;-66
2022/05/15 08:44:33;;;;;;;18.58;9.13;;;;;;;22.23;40.02;101776.09;5072563;28;20419;-67
2022/05/15 08:47:18;;;;;;;15.88;7.70;;;;;;;22.34;41.34;101788.59;5071768;28;20451;-66
2022/05/15 08:49:53;;;;;;;17.67;7.82;;;;;;;22.57;41.31;101784.47;5071114;28;20056;-71
2022/05/15 08:52:26;;;;;;;18.60;7.57;;;;;;;22.74;41.15;101787.38;5071146;28;20027;-71
2022/05/15 08:54:57;;;;;;;18.77;7.85;;;;;;;22.81;39.82;101786.59;5070390;28;20066;-70
2022/05/15 08:58:07;;;;;;;20.73;7.90;;;;;;;22.81;38.61;101780.31;5071455;28;20029;-70
2022/05/15 09:00:40;;;;;;;18.38;7.40;;;;;;;22.90;39.96;101777.53;5072877;28;20426;-71
2022/05/15 09:03:17;;;;;;;22.80;7.97;;;;;;;23.07;39.21;101783.16;5071291;28;20021;-73
2022/05/15 09:06:03;;;;;;;14.70;7.88;;;;;;;23.06;37.96;101778.72;5070550;28;20111;-71
2022/05/15 09:08:39;;;;;;;18.48;7.85;;;;;;;23.15;36.82;101788.66;5070502;28;20024;-71
2022/05/15 09:11:11;;;;;;;17.55;7.25;;;;;;;23.10;36.57;101775.53;5069688;28;20153;-72
2022/05/15 09:13:41;;;;;;;14.50;6.72;;;;;;;23.24;36.52;101785.00;5074697;28;20384;-72
2022/05/15 09:16:22;;;;;;;13.88;5.50;;;;;;;23.24;35.12;101784.16;5072557;28;20032;-70
2022/05/15 09:18:47;;;;;;;16.15;6.50;;;;;;;23.19;35.97;101791.91;5071964;28;20071;-71
2022/05/15 09:21:15;;;;;;;20.48;7.50;;;;;;;23.26;35.86;101790.25;5073798;28;20473;-70
2022/05/15 09:23:50;;;;;;;13.18;6.10;;;;;;;23.41;35.92;101791.38;5075513;28;20111;-71
2022/05/15 09:26:22;;;;;;;13.27;5.68;;;;;;;23.43;35.25;101772.25;5090247;28;20024;-70
2022/05/15 09:29:01;;;;;;;12.27;5.22;;;;;;;23.45;34.05;101787.38;5077085;28;20024;-70
2022/05/15 09:31:42;;;;;;;11.18;5.50;;;;;;;23.57;34.72;101782.53;5079412;28;20052;-70
2022/05/15 09:34:31;;;;;;;13.88;5.68;;;;;;;23.62;34.51;101769.34;5071015;28;20379;-68
2022/05/15 09:39:48;;;;;;;17.00;6.50;;;;;;;23.65;34.24;101777.16;5070724;28;20133;-67
2022/05/15 09:45:07;;;;;;;14.88;5.70;;;;;;;23.93;34.05;101756.13;5069948;28;20541;-63
2022/05/15 09:47:38;;;;;;;14.27;5.65;;;;;;;24.06;33.85;101760.25;5071302;28;20297;-64
2022/05/15 09:50:09;;;;;;;15.77;5.68;;;;;;;24.03;31.92;101762.28;5070671;28;20020;-64
2022/05/15 09:52:41;;;;;;;17.00;5.88;;;;;;;24.23;32.95;101751.16;5069926;28;20187;-63
2022/05/15 09:55:27;;;;;;;12.85;4.85;;;;;;;24.33;33.80;101748.31;5069737;28;20463;-67
2022/05/15 09:57:57;;;;;;;10.68;4.70;;;;;;;24.47;32.52;101748.56;5071239;28;20036;-67
2022/05/15 10:00:23;;;;;;;14.98;5.85;;;;;;;24.53;31.92;101743.44;5074791;28;20464;-67
2022/05/15 10:02:54;;;;;;;18.90;5.03;;;;;;;24.52;31.17;101748.03;5070250;28;20388;-65
2022/05/15 10:05:27;;;;;;;24.17;4.90;;;;;;;24.48;29.61;101743.97;5070367;28;20044;-65
2022/05/15 10:08:00;;;;;;;18.63;4.25;;;;;;;24.51;29.98;101757.22;5069449;28;20024;-65
2022/05/15 10:10:47;;;;;;;15.73;5.47;;;;;;;24.44;30.79;101762.50;5068919;28;20028;-65
2022/05/15 10:13:16;;;;;;;11.07;4.40;;;;;;;24.36;29.68;101743.38;5067950;28;20501;-65
2022/05/15 10:15:50;;;;;;;9.02;4.82;;;;;;;24.47;30.03;101747.69;5070858;28;20448;-65
2022/05/15 10:18:22;;;;;;;11.18;4.15;;;;;;;24.66;32.17;101738.38;5071090;28;20440;-64
2022/05/15 10:20:53;;;;;;;17.65;4.43;;;;;;;24.80;31.38;101745.06;5070075;28;20101;-64
2022/05/15 10:23:28;;;;;;;13.20;4.00;;;;;;;24.75;31.84;101740.09;5070714;28;20393;-66
2022/05/15 10:25:59;;;;;;;11.73;4.40;;;;;;;24.61;30.44;101748.91;5070453;28;20033;-65
2022/05/15 10:28:28;;;;;;;16.85;4.43;;;;;;;24.68;31.84;101752.69;5070696;28;20506;-64
2022/05/15 10:30:56;;;;;;;;;;;;;;;24.80;32.63;101742.31;5070433;28;20028;-65
2022/05/15 10:33:21;;;;;;;11.85;4.15;;;;;;;24.75;30.18;101737.38;5070560;28;19912;-66
2022/05/15 10:38:03;;;;;;;18.20;4.70;;;;;;;24.81;31.13;101733.13;5109760;27;20617;-62
2022/05/15 10:40:29;;;;;;;14.73;4.80;;;;;;;24.71;30.55;101716.97;5107790;28;20071;-67
2022/05/15 10:43:00;;;;;;;14.27;4.38;;;;;;;24.64;30.67;101721.38;5107032;28;20082;-66
2022/05/15 10:45:49;;;;;;;13.05;5.30;;;;;;;24.71;31.37;101714.25;5108184;28;20390;-67
2022/05/15 10:48:21;;;;;;;16.15;5.00;;;;;;;24.77;29.83;101710.00;5105893;28;20371;-66
2022/05/15 10:50:54;;;;;;;11.48;4.72;;;;;;;24.77;29.46;101721.75;5107790;28;20260;-65
2022/05/15 10:59:41;;;;;;;12.50;4.40;;;;;;;24.64;30.50;101716.78;5108262;28;20126;-65
2022/05/15 11:02:40;;;;;;;13.32;4.68;;;;;;;24.63;30.67;101719.69;5107081;28;20032;-67
2022/05/15 11:05:45;;;;;;;12.05;4.28;;;;;;;24.66;30.86;101709.31;5106480;28;20032;-66
2022/05/15 11:08:37;;;;;;;11.70;4.18;;;;;;;24.51;29.44;101716.44;5063686;28;20028;-66
2022/05/15 11:11:30;;;;;;;12.80;4.53;;;;;;;24.53;29.62;101713.53;5103976;28;20036;-66
2022/05/15 11:14:10;;;;;;;10.57;4.75;;;;;;;24.69;30.31;101702.69;5115976;28;20051;-66
2022/05/15 11:16:52;;;;;;;10.98;4.38;;;;;;;24.88;30.85;101696.03;5107186;28;20032;-69
2022/05/15 11:19:35;;;;;;;15.05;3.90;;;;;;;25.04;30.85;101706.09;5106510;28;20024;-66
2022/05/15 11:22:30;;;;;;;13.85;4.25;;;;;;;25.07;30.36;101694.88;5106844;27;20843;-70
2022/05/15 11:25:19;;;;;;;13.75;4.07;;;;;;;25.13;30.72;101689.59;5106467;28;20020;-69
2022/05/15 11:27:44;;;;;;;;;;;;;;;25.21;29.14;101690.59;5109840;28;20027;-67
2022/05/15 11:30:32;;;;;;;13.27;4.40;;;;;;;25.27;29.04;101676.34;5107987;28;20006;-67
2022/05/15 11:33:03;;;;;;;10.55;3.95;;;;;;;25.41;28.84;101672.03;5106516;28;20019;-63
2022/05/15 11:35:38;;;;;;;10.70;3.75;;;;;;;25.42;28.95;101674.59;5107777;28;20089;-65
2022/05/15 11:38:19;;;;;;;11.82;4.80;;;;;;;25.27;28.04;101666.28;5104891;28;20070;-64
2022/05/15 11:40:48;;;;;;;10.18;3.63;;;;;;;25.43;27.97;101656.38;5105639;28;20031;-65
2022/05/15 11:43:26;;;;;;;7.88;3.55;;;;;;;25.56;27.86;101662.09;5106830;28;20491;-64
2022/05/15 11:45:59;;;;;;;11.07;3.65;;;;;;;25.66;27.72;101653.75;5104984;27;20039;-65
2022/05/15 11:48:27;;;;;;;13.48;4.03;;;;;;;25.46;27.07;101648.69;5091707;28;20062;-64
2022/05/15 11:51:25;;;;;;;12.10;3.13;;;;;;;25.66;27.41;101642.84;5103213;27;20479;-64
2022/05/15 11:54:04;;;;;;;15.07;3.60;;;;;;;25.60;26.69;101652.56;5083237;28;20062;-69
2022/05/15 11:56:43;;;;;;;12.15;3.72;;;;;;;25.69;26.88;101642.47;5092933;28;20054;-71